Los Alamitos, California
Current Conditions -  °F | °C
As of 2:58 PM on Wednesday 22 Oct 2014 (Local Time) from KSLI Reporting Station
Scattered Clouds Scattered Clouds  
Wind Chill: 79°   Ceiling: Unl
Heat Index: 80°   Visibility: 10mi
Dew Point: 63°   Wind: 10mph
Humidity: 59%   Direction: 200°SSW
Pressure: 29.89"   Gusts: NA
Location:  33.8°N, 118.07°W
Report Text: KSLI 222158Z 20009KT 10SM SCT250 26/17 A2989 RMK AO2A SLP125 T02600173
Loading
Personal Weather Stations






























Interactive Weather Map
Tropical Storm Tracking
New forecast layout! Learn more

10-Day Weather Forecast

Advertisements
Track Severe Weather on mobile